| time (UTC) | temp F | wind direction | speed MPH | gust MPH | rain 1hr in | rain 24hr in | rain mn in | humidity % | barometer mb |
| 20260506023039 | 76 | 35 | 2.0 | 6.0 | 0.00 | 0.00 | 0.00 | 38 | 1012.0 |
| 20260506021537 | 78 | 40 | 2.0 | 6.0 | 0.00 | 0.00 | 0.00 | 37 | 1011.9 |
| 20260506020040 | 78 | 49 | 6.0 | 12.0 | 0.00 | 0.00 | 0.00 | 38 | 1011.9 |
| 20260506014537 | 80 | 38 | 6.0 | 12.0 | 0.00 | 0.00 | 0.00 | 35 | 1011.8 |
| 20260506013038 | 82 | 36 | 1.0 | 5.0 | 0.00 | 0.00 | 0.00 | 34 | 1011.7 |
| 20260506011601 | 82 | 35 | 3.0 | 7.0 | 0.00 | 0.00 | 0.00 | 34 | 1011.7 |
| 20260506010040 | 81 | 352 | 2.0 | 13.0 | 0.00 | 0.00 | 0.00 | 33 | 1011.7 |
| 20260506004554 | 82 | 28 | 1.0 | 8.0 | 0.00 | 0.00 | 0.00 | 33 | 1011.6 |
| 20260506003037 | 81 | 44 | 3.0 | 11.0 | 0.00 | 0.00 | 0.00 | 35 | 1011.6 |
| 20260506001537 | 81 | 31 | 1.0 | 14.0 | 0.00 | 0.00 | 0.00 | 34 | 1011.6 |
| 20260506000110 | 81 | 57 | 5.0 | 13.0 | 0.00 | 0.00 | 0.00 | 33 | 1011.6 |
| 20260505234545 | 81 | 59 | 8.0 | 13.0 | 0.00 | 0.00 | 0.00 | 31 | 1011.7 |
| 20260505233038 | 82 | 63 | 4.0 | 13.0 | 0.00 | 0.00 | 0.00 | 31 | 1011.8 |
| 20260505231539 | 83 | 12 | 1.0 | 7.0 | 0.00 | 0.00 | 0.00 | 32 | 1011.8 |
| 20260505230057 | 82 | 40 | 7.0 | 14.0 | 0.00 | 0.00 | 0.00 | 31 | 1011.9 |
| 20260505224542 | 82 | 34 | 2.0 | 11.0 | 0.00 | 0.00 | 0.00 | 34 | 1011.9 |
| 20260505223043 | 82 | 24 | 5.0 | 12.0 | 0.00 | 0.00 | 0.00 | 34 | 1012.0 |
| 20260505221541 | 82 | 17 | 1.0 | 11.0 | 0.00 | 0.00 | 0.00 | 34 | 1012.1 |
| 20260505220040 | 81 | 35 | 5.0 | 11.0 | 0.00 | 0.00 | 0.00 | 34 | 1012.2 |
| 20260505214537 | 80 | 0 | 3.0 | 12.0 | 0.00 | 0.00 | 0.00 | 37 | 1012.2 |
| 20260505213043 | 80 | 32 | 6.0 | 13.0 | 0.00 | 0.00 | 0.00 | 36 | 1012.4 |
| 20260505211541 | 80 | 0 | 5.0 | 14.0 | 0.00 | 0.00 | 0.00 | 40 | 1012.4 |
| 20260505210039 | 78 | 51 | 5.0 | 15.0 | 0.00 | 0.00 | 0.00 | 40 | 1012.5 |
| 20260505204545 | 79 | 26 | 2.0 | 11.0 | 0.00 | 0.00 | 0.00 | 41 | 1012.5 |
| 20260505203051 | 79 | 28 | 5.0 | 11.0 | 0.00 | 0.00 | 0.00 | 41 | 1012.8 |
| 20260505201540 | 78 | 5 | 2.0 | 9.0 | 0.00 | 0.00 | 0.00 | 43 | 1012.8 |
| 20260505200046 | 76 | 5 | 3.0 | 11.0 | 0.00 | 0.00 | 0.00 | 45 | 1013.0 |
| 20260505194551 | 75 | 360 | 5.0 | 9.0 | 0.00 | 0.00 | 0.00 | 45 | 1013.1 |
| 20260505193039 | 75 | 360 | 2.0 | 11.0 | 0.00 | 0.00 | 0.00 | 46 | 1013.1 |
| 20260505191547 | 74 | 352 | 3.0 | 10.0 | 0.00 | 0.00 | 0.00 | 47 | 1013.3 |
| 20260505190040 | 73 | 351 | 3.0 | 8.0 | 0.00 | 0.00 | 0.00 | 48 | 1013.3 |
| 20260505184538 | 72 | 350 | 1.0 | 6.0 | 0.00 | 0.00 | 0.00 | 50 | 1013.4 |
| 20260505183043 | 71 | 349 | 1.0 | 9.0 | 0.00 | 0.00 | 0.00 | 51 | 1013.4 |
| 20260505181540 | 71 | 0 | 1.0 | 4.0 | 0.00 | 0.00 | 0.00 | 50 | 1013.4 |
| 20260505180047 | 70 | 340 | 2.0 | 6.0 | 0.00 | 0.00 | 0.00 | 52 | 1013.3 |
| 20260505174540 | 68 | 0 | 1.0 | 4.0 | 0.00 | 0.00 | 0.00 | 57 | 1013.2 |
| 20260505173037 | 66 | 272 | 3.0 | 4.0 | 0.00 | 0.00 | 0.00 | 56 | 1013.1 |
| 20260505171554 | 65 | 292 | 1.0 | 7.0 | 0.00 | 0.00 | 0.00 | 59 | 1013.1 |
| 20260505170043 | 64 | 290 | 4.0 | 9.0 | 0.00 | 0.00 | 0.00 | 60 | 1013.2 |
| 20260505164538 | 63 | 251 | 3.0 | 7.0 | 0.00 | 0.00 | 0.00 | 61 | 1013.1 |
| 20260505163038 | 62 | 238 | 3.0 | 9.0 | 0.00 | 0.00 | 0.00 | 64 | 1013.2 |
| 20260505161551 | 61 | 259 | 3.0 | 8.0 | 0.00 | 0.00 | 0.00 | 65 | 1013.2 |
| 20260505153041 | 59 | 261 | 2.0 | 7.0 | 0.00 | 0.00 | 0.00 | 69 | 1013.2 |
| 20260505151538 | 57 | 260 | 3.0 | 7.0 | 0.00 | 0.00 | 0.00 | 71 | 1013.1 |
| 20260505124552 | 50 | 225 | 1.0 | 3.0 | 0.00 | 0.00 | 0.00 | 83 | 1012.0 |
| 20260505123053 | 50 | 225 | 0.0 | 3.0 | 0.00 | 0.00 | 0.00 | 82 | 1011.8 |
| 20260505121611 | 51 | 213 | 1.0 | 3.0 | 0.00 | 0.00 | 0.00 | 79 | 1011.8 |
| 20260505120047 | 51 | 204 | 0.0 | 4.0 | 0.00 | 0.00 | 0.00 | 77 | 1011.7 |
| 20260505114544 | 51 | 0 | 1.0 | 3.0 | 0.00 | 0.00 | 0.00 | 74 | 1011.7 |
| 20260505113054 | 52 | 204 | 1.0 | 2.0 | 0.00 | 0.00 | 0.00 | 72 | 1011.7 |
| 20260505111542 | 52 | 0 | 1.0 | 4.0 | 0.00 | 0.00 | 0.00 | 68 | 1011.6 |
| 20260505101542 | 56 | 298 | 2.0 | 4.0 | 0.00 | 0.00 | 0.00 | 73 | 1011.4 |
| 20260505100051 | 57 | 312 | 1.0 | 3.0 | 0.00 | 0.00 | 0.00 | 76 | 1011.3 |
| 20260505094545 | 58 | 298 | 2.0 | 4.0 | 0.00 | 0.00 | 0.00 | 74 | 1011.2 |
| 20260505093044 | 58 | 332 | 1.0 | 5.0 | 0.00 | 0.00 | 0.00 | 74 | 1011.2 |
| 20260505091549 | 59 | 328 | 2.0 | 8.0 | 0.00 | 0.00 | 0.00 | 73 | 1011.2 |
| 20260505090054 | 59 | 328 | 2.0 | 5.0 | 0.00 | 0.00 | 0.00 | 73 | 1011.2 |
| 20260505084540 | 59 | 348 | 2.0 | 8.0 | 0.00 | 0.00 | 0.00 | 72 | 1011.2 |
| 20260505083046 | 59 | 325 | 2.0 | 8.0 | 0.00 | 0.00 | 0.00 | 72 | 1011.2 |
| 20260505081546 | 59 | 352 | 3.0 | 8.0 | 0.00 | 0.00 | 0.00 | 72 | 1011.1 |
| 20260505080050 | 59 | 333 | 3.0 | 10.0 | 0.00 | 0.00 | 0.00 | 70 | 1011.2 |
| 20260505074542 | 60 | 309 | 4.0 | 12.0 | 0.00 | 0.00 | 0.00 | 70 | 1011.0 |
| 20260505073052 | 60 | 317 | 2.0 | 13.0 | 0.00 | 0.00 | 0.00 | 69 | 1011.1 |
| 20260505071542 | 60 | 311 | 4.0 | 13.0 | 0.00 | 0.00 | 0.00 | 68 | 1011.0 |
| 20260505070044 | 60 | 324 | 4.0 | 12.0 | 0.00 | 0.00 | 0.00 | 66 | 1010.9 |
| 20260505064540 | 61 | 338 | 4.0 | 13.0 | 0.00 | 0.00 | 0.00 | 64 | 1010.9 |
| 20260505063050 | 61 | 336 | 4.0 | 11.0 | 0.00 | 0.00 | 0.00 | 61 | 1010.8 |
| 20260505061539 | 62 | 337 | 4.0 | 12.0 | 0.00 | 0.00 | 0.00 | 59 | 1010.7 |
| 20260505060039 | 63 | 336 | 6.0 | 14.0 | 0.00 | 0.00 | 0.00 | 55 | 1010.5 |
| 20260505054558 | 63 | 325 | 5.0 | 12.0 | 0.00 | 0.00 | 0.00 | 54 | 1010.5 |
| 20260505053047 | 63 | 333 | 5.0 | 17.0 | 0.00 | 0.00 | 0.00 | 52 | 1010.4 |
| 20260505051543 | 64 | 331 | 8.0 | 21.0 | 0.00 | 0.00 | 0.00 | 50 | 1010.4 |
| 20260505041550 | 66 | 325 | 7.0 | 17.0 | 0.00 | 0.00 | 0.00 | 39 | 1010.0 |
| 20260505040044 | 67 | 335 | 9.0 | 18.0 | 0.00 | 0.00 | 0.00 | 38 | 1010.0 |
| 20260505034537 | 67 | 321 | 8.0 | 18.0 | 0.00 | 0.00 | 0.00 | 38 | 1009.6 |
| 20260505033038 | 68 | 323 | 8.0 | 16.0 | 0.00 | 0.00 | 0.00 | 38 | 1009.4 |
| 20260505031541 | 69 | 331 | 9.0 | 18.0 | 0.00 | 0.00 | 0.00 | 38 | 1009.2 |
| 20260505030053 | 70 | 315 | 7.0 | 20.0 | 0.00 | 0.00 | 0.00 | 37 | 1009.0 |
| 20260505024541 | 71 | 342 | 10.0 | 17.0 | 0.00 | 0.00 | 0.00 | 37 | 1008.9 |